ATTENZIONE, DATI ANEMOMETRICI OFFLINE. RISOLVEREMO AL PIU' PRESTO - CI SCUSIAMO PER IL DISAGIO.

Nearby METAR Reports

 

LIBG - Grottaglie(Civ/A, Italy
Distance from station: NE 13km
Ultima actualizare: 08/08/2022 19:50
NOT Current
Senin
Senin
 Vânt dela NNE
Vântul: NNE 9 km/h
Temperatura: 30°C
Heat Index: 31°C
Punct de rouă: 19°C
Umiditate: 52%
Barometru: 1012 hPa
Sumar: Senin
Visibility: greater than 10 km
2022/08/08 17:50 LIBG 081750Z 02005KT CAVOK 30/19 Q1012
LIBH - Marina Di Ginosa, Italy
Distance from station: V 33km
Ultima actualizare: 08/08/2022 19:55
NOT Current
Few Clouds
Few Clouds
 Vânt dela V
Vântul: V 13 km/h
Temperatura: 29°C
Heat Index: 32°C
Punct de rouă: 22°C
Umiditate: 66%
Barometru: 1011 hPa
Clouds: Few Clouds
Visibility: 10 km
Cloud details: Few Clouds 1219 m
2022/08/08 17:55 LIBH 081755Z 28007KT 240V310 9999 FEW040 29/22 Q1011 RMK BKN SCT090 BKN100 QUK 1 QUL 1 NW VIS MAR 20 KM VIS MIN 9999
 
LIBV - Gioia Del Colle, Italy
Distance from station: NV 45km
Ultima actualizare: 08/08/2022 23:55
Parțial înorat
Parțial înorat
 Vânt dela NV
Vântul: NV 9 km/h
Temperatura: 24°C
Punct de rouă: 22°C
Umiditate: 89%
Barometru: 1015 hPa
Clouds: Parțial înorat
Visibility: 9 km
Cloud details: Parțial înorat 610 m
2022/08/08 21:55 LIBV 082155Z 32005KT 9000 SCT020 24/22 Q1015
LIBR - Brindisi/Casale, Italy
Distance from station: ENE 62km
Ultima actualizare: 09/08/2022 00:50
Senin
Senin
 Vânt dela NNV
Vântul: NNV 22 km/h
Temperatura: 27°C
Heat Index: 31°C
Punct de rouă: 24°C
Umiditate: 84%
Barometru: 1013 hPa
Sumar: Senin
Visibility: greater than 10 km
2022/08/08 22:50 LIBR 082250Z 33012KT CAVOK 27/24 Q1013
 
LIBN - Lecce (it-Afb), Italy
Distance from station: ESE 79km
Ultima actualizare: 08/08/2022 23:55
Senin
Senin
 Vânt dela NNV
Vântul: NNV 7 km/h
Temperatura: 27°C
Heat Index: 33°C
Punct de rouă: 27°C
Umiditate: 100%
Barometru: 1014 hPa
Sumar: Senin
Visibility: greater than 10 km
2022/08/08 21:55 LIBN 082155Z 34004KT CAVOK 27/27 Q1014
LIBD - Bari/Palese Macc, Italy
Distance from station: NNV 85km
Ultima actualizare: 09/08/2022 00:50
Senin
Senin
 Vânt dela V
Vântul: V 9 km/h
Temperatura: 26°C
Punct de rouă: 20°C
Umiditate: 70%
Barometru: 1014 hPa
Sumar: Senin
Visibility: greater than 10 km
2022/08/08 22:50 LIBD 082250Z 28005KT CAVOK 26/20 Q1014